Time;durP1;ratioP1;P1;durP2;ratioP2;P2;SDS_P1;SDS_P2;PMS_P1;PMS_P2;Temp;Humidity;BMP_temperature;BMP_pressure;BME280_temperature;BME280_humidity;BME280_pressure;Samples;Min_cycle;Max_cycle;Signal;HPM_P1;HPM_P2
2022/01/04 00:00:55;;;;;;;3.55;1.20;;;;;;;-141.50;100.00;63355.56;5074855;28;20155;-80
2022/01/04 00:03:21;;;;;;;5.28;1.23;;;;;;;-141.50;100.00;63355.56;5074123;28;20507;-81
2022/01/04 00:05:48;;;;;;;6.78;1.25;;;;;;;-141.50;100.00;63355.56;5074612;28;20049;-80
2022/01/04 00:08:15;;;;;;;6.38;1.33;;;;;;;-141.50;100.00;63355.56;5073838;28;20079;-79
2022/01/04 00:10:41;;;;;;;4.43;1.20;;;;;;;-141.50;100.00;63355.56;5073358;28;20052;-81
2022/01/04 00:13:22;;;;;;;5.13;1.40;;;;;;;-141.50;100.00;63355.56;5072418;28;20060;-81
2022/01/04 00:15:58;;;;;;;4.43;1.30;;;;;;;-141.50;100.00;63355.56;5072518;28;20057;-81
2022/01/04 00:18:25;;;;;;;3.22;1.35;;;;;;;-141.50;100.00;63355.56;5072567;28;20555;-81
2022/01/04 00:20:53;;;;;;;3.33;1.33;;;;;;;-141.50;100.00;63355.56;5074076;28;20048;-81
2022/01/04 00:23:21;;;;;;;5.72;1.40;;;;;;;-141.50;100.00;63355.56;5072329;28;20102;-80
2022/01/04 00:25:48;;;;;;;6.30;1.88;;;;;;;-141.50;100.00;63355.56;5071396;28;20052;-81
2022/01/04 00:28:14;;;;;;;5.18;1.33;;;;;;;-141.50;100.00;63355.56;5071813;28;20052;-79
2022/01/04 00:30:41;;;;;;;5.80;1.45;;;;;;;-141.50;100.00;63355.56;5074920;28;20052;-80
2022/01/04 00:33:11;;;;;;;3.65;1.10;;;;;;;-141.50;100.00;63355.56;5111569;28;20496;-81
2022/01/04 00:35:40;;;;;;;7.15;1.40;;;;;;;-141.50;100.00;63355.56;5114920;28;20054;-82
2022/01/04 00:38:07;;;;;;;7.53;1.42;;;;;;;-141.50;100.00;63355.56;5114515;28;20047;-82
2022/01/04 00:40:34;;;;;;;9.60;1.65;;;;;;;-141.50;100.00;63355.56;5114990;28;20075;-81
2022/01/04 00:43:01;;;;;;;9.00;1.63;;;;;;;-141.50;100.00;63355.56;5115097;28;20099;-81
2022/01/04 00:45:32;;;;;;;4.82;1.40;;;;;;;-141.50;100.00;63355.56;5119460;28;20047;-80
2022/01/04 00:50:29;;;;;;;4.95;1.08;;;;;;;-141.50;100.00;63355.56;5113446;28;20487;-81
2022/01/04 00:52:57;;;;;;;9.13;1.63;;;;;;;-141.50;100.00;63355.56;5113694;28;20079;-81
2022/01/04 00:55:24;;;;;;;4.90;1.27;;;;;;;-141.50;100.00;63355.56;5114254;28;20052;-81
2022/01/04 00:57:50;;;;;;;7.03;1.35;;;;;;;-141.50;100.00;63355.56;5112633;28;20148;-81
2022/01/04 01:00:18;;;;;;;6.18;1.30;;;;;;;-141.50;100.00;63355.56;5113850;27;20381;-82
2022/01/04 01:02:45;;;;;;;3.00;1.20;;;;;;;-141.50;100.00;63355.56;5112333;28;20048;-82
2022/01/04 01:05:14;;;;;;;5.78;1.30;;;;;;;-141.50;100.00;63355.56;5115466;28;20052;-81
2022/01/04 01:07:41;;;;;;;5.00;1.17;;;;;;;-141.50;100.00;63355.56;5114163;28;20048;-80
2022/01/04 01:10:31;;;;;;;5.60;1.33;;;;;;;-141.50;100.00;63355.56;5114014;28;20071;-81
2022/01/04 01:12:58;;;;;;;4.90;1.25;;;;;;;-141.50;100.00;63355.56;5113115;28;20104;-81
2022/01/04 01:15:25;;;;;;;3.75;1.20;;;;;;;-141.50;100.00;63355.56;5114459;28;20100;-80
2022/01/04 01:17:51;;;;;;;6.30;1.08;;;;;;;-141.50;100.00;63355.56;5113104;28;20082;-81
2022/01/04 01:20:18;;;;;;;8.80;1.50;;;;;;;-141.50;100.00;63355.56;5113487;28;20044;-80
2022/01/04 01:22:45;;;;;;;3.53;1.10;;;;;;;-141.50;100.00;63355.56;5113039;28;20047;-81
2022/01/04 01:25:13;;;;;;;4.80;1.25;;;;;;;-141.50;100.00;63355.56;5119345;28;20089;-80
2022/01/04 01:27:41;;;;;;;6.32;1.23;;;;;;;-141.50;100.00;63355.56;5134823;28;20028;-80
2022/01/04 01:30:09;;;;;;;6.15;1.30;;;;;;;-141.50;100.00;63355.56;5132204;28;20028;-81
2022/01/04 01:32:35;;;;;;;3.42;0.95;;;;;;;-141.50;100.00;63355.56;5115285;28;20476;-81
2022/01/04 01:35:03;;;;;;;7.53;1.08;;;;;;;-141.50;100.00;63355.56;5113323;28;20051;-82
2022/01/04 01:37:29;;;;;;;4.35;1.20;;;;;;;-141.50;100.00;63355.56;5112773;28;20100;-81
2022/01/04 01:39:56;;;;;;;5.40;1.25;;;;;;;-141.50;100.00;63355.56;5111985;28;20059;-80
2022/01/04 01:42:23;;;;;;;5.45;1.25;;;;;;;-141.50;100.00;63355.56;5113688;28;20062;-82
2022/01/04 01:44:50;;;;;;;4.05;1.40;;;;;;;-141.50;100.00;63355.56;5114372;28;20048;-82
2022/01/04 01:47:17;;;;;;;5.20;1.30;;;;;;;-141.50;100.00;63355.56;5119434;28;20047;-80
2022/01/04 01:49:44;;;;;;;3.03;0.98;;;;;;;-141.50;100.00;63355.56;5123392;28;20345;-80
2022/01/04 01:52:11;;;;;;;3.33;1.20;;;;;;;-141.50;100.00;63355.56;5121346;28;20224;-82
2022/01/04 01:54:38;;;;;;;7.25;1.25;;;;;;;-141.50;100.00;63355.56;5118459;28;20203;-81
2022/01/04 01:57:05;;;;;;;8.50;1.20;;;;;;;-141.50;100.00;63355.56;5084251;28;20056;-82
2022/01/04 01:59:31;;;;;;;5.00;1.25;;;;;;;-141.50;100.00;63355.56;5076891;28;20055;-82
2022/01/04 02:01:58;;;;;;;5.88;1.48;;;;;;;-141.50;100.00;63355.56;5078458;28;20074;-81
2022/01/04 02:04:25;;;;;;;4.55;1.15;;;;;;;-141.50;100.00;63355.56;5084932;28;20049;-79
2022/01/04 02:06:52;;;;;;;5.50;1.17;;;;;;;-141.50;100.00;63355.56;5076312;28;20117;-81
2022/01/04 02:09:18;;;;;;;4.88;1.45;;;;;;;-141.50;100.00;63355.56;5074648;28;20128;-80
2022/01/04 02:11:45;;;;;;;6.47;1.65;;;;;;;-141.50;100.00;63355.56;5076184;28;20106;-80
2022/01/04 02:14:12;;;;;;;3.95;1.30;;;;;;;-141.50;100.00;63355.56;5076425;28;20090;-80
2022/01/04 02:16:38;;;;;;;9.18;1.42;;;;;;;-141.50;100.00;63355.56;5075135;28;20053;-81
2022/01/04 02:19:08;;;;;;;5.90;1.40;;;;;;;-141.50;100.00;63355.56;5075589;28;20420;-81
2022/01/04 02:21:36;;;;;;;5.35;1.42;;;;;;;-141.50;100.00;63355.56;5074930;28;20094;-81
2022/01/04 02:24:03;;;;;;;5.28;1.42;;;;;;;-141.50;100.00;63355.56;5075883;28;20122;-80
2022/01/04 02:26:32;;;;;;;7.50;1.60;;;;;;;-141.50;100.00;63355.56;5075126;28;20044;-80
2022/01/04 02:28:59;;;;;;;6.60;1.88;;;;;;;-141.50;100.00;63355.56;5072911;28;20094;-81
2022/01/04 02:31:26;;;;;;;11.50;1.75;;;;;;;-141.50;100.00;63355.56;5070957;28;20045;-81
2022/01/04 02:33:54;;;;;;;6.45;1.70;;;;;;;-141.50;100.00;63355.56;5070995;28;20075;-82
2022/01/04 02:36:20;;;;;;;3.95;1.67;;;;;;;-141.50;100.00;63355.56;5071642;28;20113;-82
2022/01/04 02:38:47;;;;;;;7.47;1.80;;;;;;;-141.50;100.00;63355.56;5074922;28;20074;-82
2022/01/04 02:41:13;;;;;;;4.90;1.88;;;;;;;-141.50;100.00;63355.56;5070304;28;20501;-80
2022/01/04 02:43:40;;;;;;;3.70;1.67;;;;;;;-141.50;100.00;63355.56;5068501;28;20114;-81
2022/01/04 02:46:06;;;;;;;6.90;1.80;;;;;;;-141.50;100.00;63355.56;5068151;28;20091;-80
2022/01/04 02:48:41;;;;;;;8.88;2.03;;;;;;;-141.50;100.00;63355.56;5068378;28;20084;-80
2022/01/04 02:51:09;;;;;;;8.37;2.07;;;;;;;-141.50;100.00;63355.56;5071836;28;20066;-80
2022/01/04 02:53:35;;;;;;;8.48;1.83;;;;;;;-141.50;100.00;63355.56;5075337;28;20048;-81
2022/01/04 02:56:02;;;;;;;4.95;2.00;;;;;;;-141.50;100.00;63355.56;5075744;28;20098;-80
2022/01/04 02:58:29;;;;;;;6.85;2.05;;;;;;;-141.50;100.00;63355.56;5073243;28;20056;-80
2022/01/04 03:00:56;;;;;;;5.68;2.30;;;;;;;-141.50;100.00;63355.56;5074224;28;20044;-82
2022/01/04 03:03:22;;;;;;;5.68;1.80;;;;;;;-141.50;100.00;63355.56;5072650;28;20068;-81
2022/01/04 03:05:49;;;;;;;5.72;1.83;;;;;;;-141.50;100.00;63355.56;5073854;28;20084;-82
2022/01/04 03:08:15;;;;;;;4.43;1.92;;;;;;;-141.50;100.00;63355.56;5074704;28;20049;-81
2022/01/04 03:10:42;;;;;;;8.65;2.05;;;;;;;-141.50;100.00;63355.56;5076100;28;20051;-81
2022/01/04 03:13:09;;;;;;;4.03;2.00;;;;;;;-141.50;100.00;63355.56;5075026;28;20101;-82
2022/01/04 03:15:36;;;;;;;5.25;2.20;;;;;;;-141.50;100.00;63355.56;5080096;28;20079;-81
2022/01/04 03:18:03;;;;;;;6.43;2.38;;;;;;;-141.50;100.00;63355.56;5084845;28;20063;-82
2022/01/04 03:20:29;;;;;;;6.10;1.83;;;;;;;-141.50;100.00;63355.56;5075926;28;20055;-82
2022/01/04 03:22:56;;;;;;;6.88;2.00;;;;;;;-141.50;100.00;63355.56;5074456;28;20052;-82
2022/01/04 03:25:23;;;;;;;5.93;1.80;;;;;;;-141.50;100.00;63355.56;5074358;28;20048;-83
2022/01/04 03:27:49;;;;;;;7.20;1.83;;;;;;;-141.50;100.00;63355.56;5072852;28;20109;-81
2022/01/04 03:30:16;;;;;;;3.58;1.35;;;;;;;-141.50;100.00;63355.56;5073808;28;20780;-79
2022/01/04 03:32:42;;;;;;;4.53;1.75;;;;;;;-141.50;100.00;63355.56;5072881;28;20102;-82
2022/01/04 03:35:09;;;;;;;4.97;1.70;;;;;;;-141.50;100.00;63355.56;5075223;28;20078;-81
2022/01/04 03:37:36;;;;;;;6.55;1.80;;;;;;;-141.50;100.00;63355.56;5074371;28;20457;-81
2022/01/04 03:40:05;;;;;;;5.57;1.63;;;;;;;-141.50;100.00;63355.56;5072669;28;20142;-79
2022/01/04 03:42:31;;;;;;;4.18;1.50;;;;;;;-141.50;100.00;63355.56;5074055;28;20049;-82
2022/01/04 03:44:58;;;;;;;5.28;1.83;;;;;;;-141.50;100.00;63355.56;5073732;28;20234;-81
2022/01/04 03:47:25;;;;;;;3.80;1.63;;;;;;;-141.50;100.00;63355.56;5072429;28;20056;-82
2022/01/04 03:49:51;;;;;;;5.43;1.75;;;;;;;-141.50;100.00;63355.56;5073564;28;20384;-81
2022/01/04 03:52:18;;;;;;;6.72;1.98;;;;;;;-141.50;100.00;63355.56;5072886;28;20107;-81
2022/01/04 03:54:44;;;;;;;3.25;1.50;;;;;;;-141.50;100.00;63355.56;5073690;28;20110;-81
2022/01/04 03:57:12;;;;;;;3.78;1.60;;;;;;;-141.50;100.00;63355.56;5071894;28;20084;-81
2022/01/04 03:59:38;;;;;;;8.50;1.65;;;;;;;-141.50;100.00;63355.56;5070917;28;20048;-81
2022/01/04 04:02:05;;;;;;;6.03;1.63;;;;;;;-141.50;100.00;63355.56;5072098;28;20382;-81
2022/01/04 04:04:32;;;;;;;6.43;1.60;;;;;;;-141.50;100.00;63355.56;5073307;28;20048;-82
2022/01/04 04:06:58;;;;;;;6.85;1.90;;;;;;;-141.50;100.00;63355.56;5078281;28;20071;-82
2022/01/04 04:09:25;;;;;;;4.63;1.35;;;;;;;-141.50;100.00;63355.56;5094046;28;20074;-82
2022/01/04 04:11:51;;;;;;;3.03;1.45;;;;;;;-141.50;100.00;63355.56;5093372;28;20051;-81
2022/01/04 04:14:18;;;;;;;5.03;1.40;;;;;;;-141.50;100.00;63355.56;5094463;28;20048;-81
2022/01/04 04:17:05;;;;;;;7.22;1.60;;;;;;;-141.50;100.00;63355.56;5094172;28;20073;-82
2022/01/04 04:19:31;;;;;;;6.85;1.75;;;;;;;-141.50;100.00;63355.56;5095340;28;20066;-82
2022/01/04 04:22:01;;;;;;;4.53;1.48;;;;;;;-141.50;100.00;63355.56;5092284;28;20086;-80
2022/01/04 04:24:27;;;;;;;7.88;1.50;;;;;;;-141.50;100.00;63355.56;5095358;28;20055;-80
2022/01/04 04:26:54;;;;;;;5.35;1.77;;;;;;;-141.50;100.00;63355.56;5092380;28;20056;-80
2022/01/04 04:29:20;;;;;;;3.65;1.55;;;;;;;-141.50;100.00;63355.56;5091883;28;20048;-79
2022/01/04 04:31:46;;;;;;;3.58;1.17;;;;;;;-141.50;100.00;63355.56;5093932;28;20041;-80
2022/01/04 04:34:13;;;;;;;3.53;1.60;;;;;;;-141.50;100.00;63355.56;5092577;28;20044;-80
2022/01/04 04:36:40;;;;;;;2.95;1.50;;;;;;;-141.50;100.00;63355.56;5095452;28;20177;-82
2022/01/04 04:39:06;;;;;;;5.32;1.27;;;;;;;-141.50;100.00;63355.56;5097126;28;20048;-82
2022/01/04 04:41:33;;;;;;;6.40;1.70;;;;;;;-141.50;100.00;63355.56;5096848;28;20036;-81
2022/01/04 04:43:59;;;;;;;6.05;1.65;;;;;;;-141.50;100.00;63355.56;5096405;28;20048;-82
2022/01/04 04:46:26;;;;;;;5.00;1.40;;;;;;;-141.50;100.00;63355.56;5098154;28;20062;-80
2022/01/04 04:48:52;;;;;;;3.75;1.52;;;;;;;-141.50;100.00;63355.56;5102988;28;20063;-81
2022/01/04 04:51:19;;;;;;;4.40;1.63;;;;;;;-141.50;100.00;63355.56;5100681;28;20052;-80
2022/01/04 04:53:45;;;;;;;2.55;1.48;;;;;;;-141.50;100.00;63355.56;5078398;28;20432;-81
2022/01/04 04:56:12;;;;;;;3.05;1.33;;;;;;;-141.50;100.00;63355.56;5088992;28;20083;-81
2022/01/04 04:58:38;;;;;;;8.23;1.42;;;;;;;-141.50;100.00;63355.56;5089466;28;20063;-81
2022/01/04 05:01:05;;;;;;;7.70;1.52;;;;;;;-141.50;100.00;63355.56;5073645;28;20098;-80
2022/01/04 05:03:31;;;;;;;3.75;1.52;;;;;;;-141.50;100.00;63355.56;5072213;28;20076;-81
2022/01/04 05:05:58;;;;;;;5.03;1.33;;;;;;;-141.50;100.00;63355.56;5073803;28;20079;-79
2022/01/04 05:08:24;;;;;;;5.03;1.30;;;;;;;-141.50;100.00;63355.56;5080320;28;20082;-80
2022/01/04 05:10:51;;;;;;;4.50;1.15;;;;;;;-141.50;100.00;63355.56;5081422;28;20047;-81
2022/01/04 05:13:17;;;;;;;4.80;1.45;;;;;;;-141.50;100.00;63355.56;5092101;28;20048;-80
2022/01/04 05:15:44;;;;;;;3.95;1.20;;;;;;;-141.50;100.00;63355.56;5091509;28;20364;-81
2022/01/04 05:18:11;;;;;;;6.55;1.40;;;;;;;-141.50;100.00;63355.56;5091967;28;20071;-78
2022/01/04 05:20:37;;;;;;;5.28;1.25;;;;;;;-141.50;100.00;63355.56;5096238;28;20056;-80
2022/01/04 05:23:04;;;;;;;2.78;1.30;;;;;;;-141.50;100.00;63355.56;5104678;28;20109;-81
2022/01/04 05:25:30;;;;;;;3.35;1.02;;;;;;;-141.50;100.00;63355.56;5108641;28;20048;-80
2022/01/04 05:27:57;;;;;;;7.05;1.67;;;;;;;-141.50;100.00;63355.56;5109767;28;20105;-79
2022/01/04 05:30:23;;;;;;;5.90;1.65;;;;;;;-141.50;100.00;63355.56;5098056;28;20055;-80
2022/01/04 05:32:50;;;;;;;4.30;1.45;;;;;;;-141.50;100.00;63355.56;5080147;28;20368;-79
2022/01/04 05:35:16;;;;;;;2.72;1.33;;;;;;;-141.50;100.00;63355.56;5086582;28;20561;-77
2022/01/04 05:37:42;;;;;;;7.35;2.00;;;;;;;-141.50;100.00;63355.56;5084725;28;20093;-80
2022/01/04 05:40:10;;;;;;;7.82;2.50;;;;;;;-141.50;100.00;63355.56;5069665;28;20083;-80
2022/01/04 05:42:36;;;;;;;8.27;3.35;;;;;;;-141.50;100.00;63355.56;5069925;28;20097;-80
2022/01/04 05:45:04;;;;;;;6.10;3.70;;;;;;;-141.50;100.00;63355.56;5072187;28;20048;-80
2022/01/04 05:47:30;;;;;;;8.50;3.67;;;;;;;-141.50;100.00;63355.56;5077627;28;20075;-79
2022/01/04 05:49:57;;;;;;;9.63;3.92;;;;;;;-141.50;100.00;63355.56;5083190;28;20053;-79
2022/01/04 05:52:23;;;;;;;13.63;4.47;;;;;;;-141.50;100.00;63355.56;5071473;28;20048;-80
2022/01/04 05:54:51;;;;;;;9.77;4.68;;;;;;;-141.50;100.00;63355.56;5075939;28;20117;-80
2022/01/04 05:57:18;;;;;;;7.80;4.20;;;;;;;-141.50;100.00;63355.56;5085661;28;20352;-78
2022/01/04 05:59:44;;;;;;;11.98;3.75;;;;;;;-141.50;100.00;63355.56;5088625;28;20109;-80
2022/01/04 06:02:11;;;;;;;8.60;3.47;;;;;;;-141.50;100.00;63355.56;5091271;28;20109;-79
2022/01/04 06:04:38;;;;;;;6.95;3.42;;;;;;;-141.50;100.00;63355.56;5092203;28;20058;-79
2022/01/04 06:07:04;;;;;;;11.25;3.40;;;;;;;-141.50;100.00;63355.56;5089637;28;20052;-77
2022/01/04 06:09:40;;;;;;;8.85;3.08;;;;;;;-141.50;100.00;63355.56;5089698;28;20459;-77
2022/01/04 06:14:58;;;;;;;6.30;3.60;;;;;;;-141.50;100.00;63355.56;5087685;28;20083;-78
2022/01/04 06:17:30;;;;;;;9.90;3.97;;;;;;;-141.50;100.00;63355.56;5088411;28;20570;-78
2022/01/04 06:19:58;;;;;;;8.57;4.30;;;;;;;-141.50;100.00;63355.56;5076361;28;20059;-80
2022/01/04 06:22:26;;;;;;;8.88;4.53;;;;;;;-141.50;100.00;63355.56;5074975;28;20056;-80
2022/01/04 06:24:54;;;;;;;9.68;5.10;;;;;;;-141.50;100.00;63355.56;5075702;28;20059;-80
2022/01/04 06:27:21;;;;;;;11.13;5.45;;;;;;;-141.50;100.00;63355.56;5076683;28;20114;-80
2022/01/04 06:29:48;;;;;;;18.35;6.53;;;;;;;-141.50;100.00;63355.56;5072785;28;20103;-79
2022/01/04 06:32:16;;;;;;;11.80;5.85;;;;;;;-141.50;100.00;63355.56;5077949;28;20102;-80
2022/01/04 06:34:44;;;;;;;11.70;5.78;;;;;;;-141.50;100.00;63355.56;5094683;28;20052;-80
2022/01/04 06:37:12;;;;;;;16.73;5.78;;;;;;;-141.50;100.00;63355.56;5103892;28;20051;-79
2022/01/04 06:39:39;;;;;;;14.25;5.25;;;;;;;-141.50;100.00;63355.56;5101530;28;20039;-79
2022/01/04 06:42:06;;;;;;;12.75;5.72;;;;;;;-141.50;100.00;63355.56;5100723;28;20109;-80
2022/01/04 06:44:33;;;;;;;8.05;5.57;;;;;;;-141.50;100.00;63355.56;5094651;28;20052;-80
2022/01/04 06:46:59;;;;;;;8.32;4.40;;;;;;;-141.50;100.00;63355.56;5095789;28;20071;-79
2022/01/04 06:49:26;;;;;;;11.32;4.25;;;;;;;-141.50;100.00;63355.56;5094798;28;20059;-80
2022/01/04 06:51:53;;;;;;;8.27;3.85;;;;;;;-141.50;100.00;63355.56;5093547;28;20327;-80
2022/01/04 06:54:20;;;;;;;8.57;4.43;;;;;;;-141.50;100.00;63355.56;5094871;28;20047;-79
2022/01/04 06:56:48;;;;;;;13.35;4.00;;;;;;;-141.50;100.00;63355.56;5093738;28;20048;-80
2022/01/04 06:59:16;;;;;;;10.95;4.47;;;;;;;-141.50;100.00;63355.56;5092732;28;20147;-80
2022/01/04 07:01:44;;;;;;;8.95;4.00;;;;;;;-141.50;100.00;63355.56;5094254;28;20051;-81
2022/01/04 07:04:11;;;;;;;7.22;3.95;;;;;;;-141.50;100.00;63355.56;5093039;28;20052;-80
2022/01/04 07:06:38;;;;;;;7.43;3.72;;;;;;;-141.50;100.00;63355.56;5098343;28;20488;-79
2022/01/04 07:09:07;;;;;;;6.95;3.70;;;;;;;-141.50;100.00;63355.56;5107991;28;20563;-79
2022/01/04 07:11:34;;;;;;;6.05;3.47;;;;;;;-141.50;100.00;63355.56;5093978;28;20071;-79
2022/01/04 07:14:01;;;;;;;9.63;3.47;;;;;;;-141.50;100.00;63355.56;5092225;28;20048;-78
2022/01/04 07:16:29;;;;;;;9.00;3.67;;;;;;;-141.50;100.00;63355.56;5093951;28;20518;-79
2022/01/04 07:18:55;;;;;;;10.07;3.80;;;;;;;-141.50;100.00;63355.56;5092452;28;20151;-79
2022/01/04 07:21:22;;;;;;;13.00;4.82;;;;;;;-141.50;100.00;63355.56;5091074;28;20530;-79
2022/01/04 07:23:49;;;;;;;13.25;5.40;;;;;;;-141.50;100.00;63355.56;5092793;28;20052;-80
2022/01/04 07:26:17;;;;;;;11.23;5.50;;;;;;;-141.50;100.00;63355.56;5094699;28;20080;-79
2022/01/04 07:28:46;;;;;;;9.65;5.38;;;;;;;-141.50;100.00;63355.56;5091903;28;20048;-80
2022/01/04 07:31:14;;;;;;;14.23;6.55;;;;;;;-141.50;100.00;63355.56;5094220;28;20102;-79
2022/01/04 07:33:41;;;;;;;10.55;6.30;;;;;;;-141.50;100.00;63355.56;5091795;28;20051;-79
2022/01/04 07:36:08;;;;;;;11.55;6.20;;;;;;;-141.50;100.00;63355.56;5092004;28;20044;-79
2022/01/04 07:38:36;;;;;;;9.90;5.88;;;;;;;-141.50;100.00;63355.56;5091139;28;20063;-81
2022/01/04 07:41:04;;;;;;;12.48;5.22;;;;;;;-141.50;100.00;63355.56;5092324;28;20138;-79
2022/01/04 07:43:32;;;;;;;7.25;4.75;;;;;;;-141.50;100.00;63355.56;5091943;28;20079;-80
2022/01/04 07:45:59;;;;;;;11.80;5.90;;;;;;;-141.50;100.00;63355.56;5094182;28;20451;-79
2022/01/04 07:48:26;;;;;;;8.25;4.80;;;;;;;-141.50;100.00;63355.56;5092940;28;20067;-79
2022/01/04 07:50:55;;;;;;;9.05;4.85;;;;;;;-141.50;100.00;63355.56;5107452;28;20048;-79
2022/01/04 07:53:28;;;;;;;11.65;5.25;;;;;;;-141.50;100.00;63355.56;5096434;28;20500;-79
2022/01/04 07:55:54;;;;;;;14.20;7.55;;;;;;;-141.50;100.00;63355.56;5081135;28;20386;-79
2022/01/04 07:58:22;;;;;;;15.52;7.20;;;;;;;-141.50;100.00;63355.56;5072813;28;20420;-79
2022/01/04 08:00:49;;;;;;;13.52;6.75;;;;;;;-141.50;100.00;63355.56;5085977;28;20079;-80
2022/01/04 08:03:16;;;;;;;12.93;6.63;;;;;;;-141.50;100.00;63355.56;5111447;28;20052;-80
2022/01/04 08:05:43;;;;;;;9.80;4.72;;;;;;;-141.50;100.00;63355.56;5101086;27;20048;-77
2022/01/04 08:08:10;;;;;;;9.20;4.85;;;;;;;-141.50;100.00;63355.56;5111456;28;20033;-78
2022/01/04 08:10:37;;;;;;;9.02;5.05;;;;;;;-141.50;100.00;63355.56;5113040;28;20048;-79
2022/01/04 08:13:06;;;;;;;12.05;4.63;;;;;;;-141.50;100.00;63355.56;5096292;28;20075;-79
2022/01/04 08:15:33;;;;;;;8.70;4.05;;;;;;;-141.50;100.00;63355.56;5083051;28;20147;-79
2022/01/04 08:18:00;;;;;;;16.25;7.85;;;;;;;-141.50;100.00;63355.56;5093792;28;20579;-80
2022/01/04 08:20:26;;;;;;;13.63;7.80;;;;;;;-141.50;100.00;63355.56;5071671;28;20076;-80
2022/01/04 08:22:53;;;;;;;14.55;7.30;;;;;;;-141.50;100.00;63355.56;5096176;28;20301;-80
2022/01/04 08:25:19;;;;;;;32.80;16.95;;;;;;;-141.50;100.00;63355.56;5080632;28;20138;-80
2022/01/04 08:27:49;;;;;;;34.63;16.42;;;;;;;-141.50;100.00;63355.56;5092919;28;20048;-80
2022/01/04 08:30:16;;;;;;;55.53;26.25;;;;;;;-141.50;100.00;63355.56;5092452;28;20043;-79
2022/01/04 08:32:43;;;;;;;31.20;14.95;;;;;;;-141.50;100.00;63355.56;5101904;28;20354;-80
2022/01/04 08:35:10;;;;;;;17.60;10.52;;;;;;;-141.50;100.00;63355.56;5114552;28;20070;-79
2022/01/04 08:37:38;;;;;;;17.88;9.43;;;;;;;-141.50;100.00;63355.56;5105061;28;20095;-80
2022/01/04 08:40:06;;;;;;;21.50;11.75;;;;;;;-141.50;100.00;63355.56;5098266;28;20044;-80
2022/01/04 08:42:34;;;;;;;20.48;10.48;;;;;;;-141.50;100.00;63355.56;5089977;28;20488;-80
2022/01/04 08:45:01;;;;;;;14.93;8.02;;;;;;;-141.50;100.00;63355.56;5091812;28;20059;-80
2022/01/04 08:47:28;;;;;;;13.90;7.28;;;;;;;-141.50;100.00;63355.56;5094866;28;20101;-79
2022/01/04 08:49:54;;;;;;;10.48;6.30;;;;;;;-141.50;100.00;63355.56;5108935;28;20055;-79
2022/01/04 08:52:22;;;;;;;13.52;6.35;;;;;;;-141.50;100.00;63355.56;5112517;28;20126;-80
2022/01/04 08:54:49;;;;;;;9.50;6.10;;;;;;;-141.50;100.00;63355.56;5109169;28;20096;-80
2022/01/04 08:57:15;;;;;;;12.27;5.72;;;;;;;-141.50;100.00;63355.56;5113900;28;20062;-80
2022/01/04 08:59:42;;;;;;;12.80;7.85;;;;;;;-141.50;100.00;63355.56;5095065;28;20527;-80
2022/01/04 09:02:08;;;;;;;13.18;6.47;;;;;;;-141.50;100.00;63355.56;5090704;28;20055;-80
2022/01/04 09:04:35;;;;;;;12.07;5.85;;;;;;;-141.50;100.00;63355.56;5092530;28;20048;-80
2022/01/04 09:07:03;;;;;;;5.78;2.30;;;;;;;-141.50;100.00;63355.56;5091838;28;20056;-79
2022/01/04 09:09:30;;;;;;;2.97;1.70;;;;;;;-141.50;100.00;63355.56;5091443;28;20052;-79
2022/01/04 09:12:18;;;;;;;1.77;0.90;;;;;;;-141.50;100.00;63355.56;5088158;28;20062;-79
2022/01/04 09:20:10;;;;;;;2.90;0.80;;;;;;;-141.50;100.00;63355.56;5083023;28;20056;-80
2022/01/04 09:22:37;;;;;;;1.80;0.82;;;;;;;-141.50;100.00;63355.56;5070842;28;20546;-80
2022/01/04 09:25:06;;;;;;;1.58;0.70;;;;;;;-141.50;100.00;63355.56;5085641;28;20056;-80
2022/01/04 09:27:33;;;;;;;3.13;0.73;;;;;;;-141.50;100.00;63355.56;5091858;28;20048;-80
2022/01/04 09:30:03;;;;;;;4.30;0.95;;;;;;;-141.50;100.00;63355.56;5086122;28;20067;-80
2022/01/04 09:32:32;;;;;;;1.70;0.75;;;;;;;-141.50;100.00;63355.56;5070656;28;20045;-79
2022/01/04 09:35:00;;;;;;;5.32;0.80;;;;;;;-141.50;100.00;63355.56;5069318;28;20052;-79
2022/01/04 09:37:27;;;;;;;2.38;0.70;;;;;;;-141.50;100.00;63355.56;5087037;28;20083;-80
2022/01/04 09:39:53;;;;;;;4.57;0.80;;;;;;;-141.50;100.00;63355.56;5090716;28;20048;-79
2022/01/04 09:42:21;;;;;;;2.35;0.80;;;;;;;-141.50;100.00;63355.56;5091838;28;20181;-80
2022/01/04 09:44:49;;;;;;;3.15;0.63;;;;;;;-141.50;100.00;63355.56;5091339;28;20485;-81
2022/01/04 09:47:15;;;;;;;2.10;0.50;;;;;;;-141.50;100.00;63355.56;5091120;28;20078;-80
2022/01/04 09:49:42;;;;;;;2.67;0.68;;;;;;;-141.50;100.00;63355.56;5088518;28;20071;-80
2022/01/04 09:52:09;;;;;;;2.67;0.60;;;;;;;-141.50;100.00;63355.56;5091587;28;20052;-81
2022/01/04 09:54:37;;;;;;;1.13;0.60;;;;;;;-141.50;100.00;63355.56;5082403;28;20101;-81
2022/01/04 09:57:04;;;;;;;2.42;0.60;;;;;;;-141.50;100.00;63355.56;5085924;28;20248;-81
2022/01/04 09:59:31;;;;;;;1.38;0.60;;;;;;;-141.50;100.00;63355.56;5089118;28;20044;-80
2022/01/04 10:02:11;;;;;;;1.70;0.70;;;;;;;-141.50;100.00;63355.56;5090399;28;20080;-80
2022/01/04 10:04:38;;;;;;;2.50;0.55;;;;;;;-141.50;100.00;63355.56;5089858;28;20138;-80
2022/01/04 10:07:07;;;;;;;2.22;0.73;;;;;;;-141.50;100.00;63355.56;5092250;28;20044;-80
2022/01/04 10:09:46;;;;;;;2.13;0.57;;;;;;;-141.50;100.00;63355.56;5091382;28;20052;-80
2022/01/04 10:12:18;;;;;;;2.40;0.63;;;;;;;-141.50;100.00;63355.56;5100109;28;20077;-80
2022/01/04 10:14:47;;;;;;;2.17;0.80;;;;;;;-141.50;100.00;63355.56;5090698;28;20070;-80
2022/01/04 10:17:19;;;;;;;1.73;0.70;;;;;;;-141.50;100.00;63355.56;5091785;28;20056;-81
2022/01/04 10:19:49;;;;;;;1.67;0.60;;;;;;;-141.50;100.00;63355.56;5092163;28;20067;-81
2022/01/04 10:22:15;;;;;;;0.95;0.60;;;;;;;-141.50;100.00;63355.56;5090737;28;20048;-80
2022/01/04 10:24:44;;;;;;;1.60;0.63;;;;;;;-141.50;100.00;63355.56;5079620;28;20044;-79
2022/01/04 10:27:27;;;;;;;1.92;0.60;;;;;;;-141.50;100.00;63355.56;5072400;28;20502;-81
2022/01/04 10:30:13;;;;;;;1.38;0.65;;;;;;;-141.50;100.00;63355.56;5088033;28;20279;-81
2022/01/04 10:32:44;;;;;;;3.15;1.63;;;;;;;-141.50;100.00;63355.56;5071504;28;20489;-80
2022/01/04 10:35:19;;;;;;;7.28;2.15;;;;;;;-141.50;100.00;63355.56;5094926;28;20043;-81
2022/01/04 10:37:46;;;;;;;5.68;3.08;;;;;;;-141.50;100.00;63355.56;5087409;28;20053;-80
2022/01/04 10:40:13;;;;;;;7.85;4.80;;;;;;;-141.50;100.00;63355.56;5100812;28;20082;-80
2022/01/04 10:42:39;;;;;;;9.02;5.25;;;;;;;-141.50;100.00;63355.56;5103248;28;20029;-80
2022/01/04 10:45:22;;;;;;;6.05;4.43;;;;;;;-141.50;100.00;63355.56;5102734;28;20048;-79
2022/01/04 10:47:49;;;;;;;6.28;4.55;;;;;;;-141.50;100.00;63355.56;5082959;28;20053;-81
2022/01/04 10:50:32;;;;;;;8.00;5.00;;;;;;;-141.50;100.00;63355.56;5091099;28;20052;-80
2022/01/04 10:52:59;;;;;;;5.47;4.38;;;;;;;-141.50;100.00;63355.56;5095913;28;20125;-80
2022/01/04 10:55:31;;;;;;;6.22;4.18;;;;;;;-141.50;100.00;63355.56;5101301;28;20052;-79
2022/01/04 10:57:59;;;;;;;6.07;4.53;;;;;;;-141.50;100.00;63355.56;5099865;28;20050;-79
2022/01/04 11:00:27;;;;;;;6.13;4.60;;;;;;;-141.50;100.00;63355.56;5098419;28;20040;-80
2022/01/04 11:02:54;;;;;;;7.38;4.55;;;;;;;-141.50;100.00;63355.56;5099350;28;20048;-80
2022/01/04 11:05:21;;;;;;;7.05;4.80;;;;;;;-141.50;100.00;63355.56;5095405;28;20050;-80
2022/01/04 11:08:05;;;;;;;9.32;5.65;;;;;;;-141.50;100.00;63355.56;5097826;28;20063;-80
2022/01/04 11:10:35;;;;;;;7.55;4.65;;;;;;;-141.50;100.00;63355.56;5090628;28;20066;-80
2022/01/04 11:13:02;;;;;;;5.88;4.60;;;;;;;-141.50;100.00;63355.56;5108806;28;20044;-81
2022/01/04 11:15:30;;;;;;;5.40;4.07;;;;;;;-141.50;100.00;63355.56;5116174;28;20044;-80
2022/01/04 11:17:57;;;;;;;5.47;3.78;;;;;;;-141.50;100.00;63355.56;5113884;28;20542;-80
2022/01/04 11:20:24;;;;;;;7.07;4.90;;;;;;;-141.50;100.00;63355.56;5113615;28;20087;-79